Terminal Aerodrome Forecast
Issued by NWS Blacksburg, VA

Current Version | Previous Version | Graphics & Text | Print | Product List | Glossary On
Versions: 1 2 3 4 5 6 7 8 9 10 11 12 13 14 15 16 17 18 19 20 21 22 23 24 25 26 27 28 29 30 31 32 33 34 35 36 37 38 39 40 41 42 43 44
000
FTUS41 KRNK 082323
TAFBLF
TAF
KBLF 082323Z 0900/0924 25010G20KT 4SM TSRA OVC040CB
      TEMPO 0901/0902 24018G32KT 1SM TSRA BKN025CB
     FM090200 26010KT 6SM -SHRA OVC050
     FM090800 26007KT 5SM BR OVC025
     FM091400 27008KT P6SM BKN050=

USA.gov is the U.S. government's official web portal to all federal, state and local government web resources and services.